createdAt,value
2022-09-26T00:04:01.596Z,23.4
2022-09-26T00:14:01.811Z,23.5
2022-09-26T00:19:01.668Z,23.8
2022-09-26T00:24:01.628Z,22.4
2022-09-26T00:29:01.632Z,22.6
2022-09-26T00:34:01.503Z,21.0
2022-09-26T00:39:01.660Z,19.6
2022-09-26T00:44:01.622Z,19.0
2022-09-26T00:49:01.623Z,20.3
2022-09-26T00:54:01.627Z,20.0
2022-09-26T00:59:01.668Z,21.0
2022-09-26T01:04:01.649Z,22.7
2022-09-26T01:09:01.643Z,22.7
2022-09-26T01:14:01.644Z,24.0
2022-09-26T01:19:01.873Z,24.1
2022-09-26T01:24:01.525Z,25.0
2022-09-26T01:29:16.949Z,25.4
2022-09-26T01:34:10.092Z,27.5
2022-09-26T01:39:01.641Z,26.5
2022-09-26T01:44:01.612Z,27.7
2022-09-26T01:49:01.705Z,27.6
2022-09-26T01:54:01.726Z,27.2
2022-09-26T01:59:01.648Z,25.8
2022-09-26T02:04:01.728Z,25.2
2022-09-26T02:09:01.609Z,24.2
2022-09-26T02:14:01.718Z,22.8
2022-09-26T02:19:01.504Z,20.9
2022-09-26T02:24:01.468Z,19.7
2022-09-26T02:29:01.392Z,19.1
2022-09-26T02:34:01.448Z,17.7
2022-09-26T02:39:01.358Z,16.7
2022-09-26T02:44:01.317Z,17.2
2022-09-26T02:49:01.582Z,16.6
2022-09-26T02:54:01.362Z,16.7
2022-09-26T02:59:01.633Z,17.8
2022-09-26T03:04:01.518Z,17.6
2022-09-26T03:09:01.630Z,15.9
2022-09-26T03:14:01.597Z,15.3
2022-09-26T03:19:01.656Z,14.2
2022-09-26T03:24:01.657Z,16.1
2022-09-26T03:29:01.546Z,16.9
2022-09-26T03:34:01.731Z,17.8
2022-09-26T03:39:01.841Z,18.2
2022-09-26T03:44:01.702Z,20.1
2022-09-26T03:49:01.654Z,18.7
2022-09-26T03:54:01.729Z,20.2
2022-09-26T04:04:01.641Z,20.6
2022-09-26T04:09:01.631Z,20.4
2022-09-26T04:14:01.734Z,19.3
2022-09-26T04:19:01.654Z,17.4
2022-09-26T04:24:01.638Z,17.3
2022-09-26T04:29:01.658Z,18.1
2022-09-26T04:34:01.862Z,17.5
2022-09-26T04:39:01.759Z,18.2
2022-09-26T04:44:01.654Z,18.0
2022-09-26T04:49:01.718Z,17.7
2022-09-26T04:54:01.723Z,16.0
2022-09-26T04:59:07.008Z,16.8
2022-09-26T05:04:01.659Z,16.3
2022-09-26T05:09:01.627Z,16.8
2022-09-26T05:14:01.785Z,18.1
2022-09-26T05:19:01.596Z,20.2
2022-09-26T05:24:01.580Z,18.8
2022-09-26T05:29:08.986Z,19.8
2022-09-26T05:34:01.599Z,19.7
2022-09-26T05:39:03.275Z,18.4
2022-09-26T05:44:01.587Z,17.4
2022-09-26T05:49:01.497Z,17.4
2022-09-26T05:54:06.729Z,15.2
2022-09-26T05:59:01.619Z,14.2
2022-09-26T06:04:01.614Z,14.8
2022-09-26T06:09:01.642Z,14.9
2022-09-26T06:14:01.625Z,15.0
2022-09-26T06:19:01.640Z,16.8
2022-09-26T06:24:01.542Z,17.5
2022-09-26T06:30:02.159Z,17.0
2022-09-26T06:35:01.832Z,17.1
2022-09-26T06:40:02.342Z,17.7
2022-09-26T06:45:03.979Z,16.2
2022-09-26T06:50:01.691Z,17.4
2022-09-26T06:55:01.624Z,19.8
2022-09-26T07:00:03.094Z,25.1
2022-09-26T07:05:01.838Z,26.2
2022-09-26T07:10:01.856Z,29.1
2022-09-26T07:15:02.629Z,29.3
2022-09-26T07:20:01.645Z,27.0
2022-09-26T07:25:01.775Z,21.0
2022-09-26T07:31:01.909Z,20.0
2022-09-26T07:36:05.936Z,17.1
2022-09-26T07:41:02.028Z,15.4
2022-09-26T07:46:01.482Z,15.2
2022-09-26T07:51:09.349Z,17.0
2022-09-26T07:56:01.995Z,18.1
2022-09-26T08:01:02.093Z,17.2
2022-09-26T08:06:02.117Z,17.3
2022-09-26T08:11:04.621Z,16.6
2022-09-26T08:16:01.686Z,14.8
2022-09-26T08:21:01.549Z,13.6
2022-09-26T08:27:01.428Z,14.2
2022-09-26T08:32:01.432Z,13.6
2022-09-26T08:37:01.965Z,13.4
2022-09-26T08:47:01.596Z,12.9
2022-09-26T08:52:01.605Z,11.8
2022-09-26T08:57:01.402Z,10.9
2022-09-26T09:02:01.810Z,9.9
2022-09-26T09:07:01.475Z,7.7
2022-09-26T09:12:01.391Z,6.1
2022-09-26T09:17:01.252Z,4.8
2022-09-26T09:22:01.375Z,3.6
2022-09-26T09:45:04.892Z,2.0
2022-09-26T09:50:01.762Z,2.3
2022-09-26T09:55:01.654Z,2.2
2022-09-26T10:00:07.862Z,2.2
2022-09-26T10:05:01.575Z,2.1
2022-09-26T10:10:01.920Z,2.3
2022-09-26T10:15:03.927Z,2.3
2022-09-26T10:20:02.348Z,2.8
2022-09-26T10:25:01.458Z,3.0
2022-09-26T10:30:17.060Z,3.0
2022-09-26T10:35:01.761Z,3.0
2022-09-26T10:40:01.661Z,2.9
2022-09-26T10:45:08.293Z,2.4
2022-09-26T10:50:05.430Z,2.2
2022-09-26T10:55:01.660Z,2.3
2022-09-26T11:00:02.426Z,2.0
2022-09-26T11:05:01.814Z,1.7
2022-09-26T11:15:07.786Z,1.8
2022-09-26T11:20:02.421Z,1.8
2022-09-26T11:25:01.535Z,2.0
2022-09-26T11:30:09.834Z,2.3
2022-09-26T11:35:02.042Z,2.2
2022-09-26T11:40:09.745Z,2.0
2022-09-26T11:45:08.697Z,2.2
2022-09-26T11:50:17.218Z,2.0
2022-09-26T11:55:01.463Z,1.8
2022-09-26T12:00:07.057Z,2.0
2022-09-26T12:05:01.415Z,2.1
2022-09-26T12:10:01.428Z,2.1
2022-09-26T12:15:16.627Z,1.9
2022-09-26T12:20:01.068Z,2.2
2022-09-26T12:25:01.252Z,2.0
2022-09-26T12:30:05.671Z,1.8
2022-09-26T12:35:17.441Z,1.5
2022-09-26T12:40:13.020Z,1.6
2022-09-26T12:45:15.323Z,1.2
2022-09-26T12:55:01.637Z,1.1
2022-09-26T13:00:09.513Z,1.0
2022-09-26T13:15:12.126Z,0.8
2022-09-26T13:20:01.571Z,0.6
2022-09-26T13:25:01.539Z,0.4
2022-09-26T13:30:04.915Z,0.2
2022-09-26T13:40:14.400Z,0.4
2022-09-26T13:45:17.396Z,0.6
2022-09-26T14:00:04.095Z,0.6
2022-09-26T14:10:01.635Z,0.2
2022-09-26T14:15:13.250Z,0.2
2022-09-26T14:20:01.757Z,0.4
2022-09-26T14:30:17.284Z,0.4
2022-09-26T14:35:01.651Z,1.4
2022-09-26T14:40:01.666Z,2.4
2022-09-26T14:45:04.394Z,3.0
2022-09-26T14:50:01.674Z,3.4
2022-09-26T15:00:17.261Z,2.7
2022-09-26T15:05:01.615Z,1.9
2022-09-26T15:10:01.614Z,1.4
2022-09-26T15:15:21.003Z,1.1
2022-09-26T15:20:01.637Z,1.3
2022-09-26T15:25:01.654Z,1.2
2022-09-26T15:30:04.843Z,1.2
2022-09-26T15:35:02.459Z,1.0
2022-09-26T15:40:01.652Z,1.2
2022-09-26T15:45:14.924Z,1.0
2022-09-26T15:55:01.622Z,0.8
2022-09-26T16:00:02.806Z,0.6
2022-09-26T16:05:02.098Z,0.5
2022-09-26T16:10:04.790Z,0.5
2022-09-26T16:15:05.051Z,0.4
2022-09-26T16:20:17.371Z,0.9
2022-09-26T16:25:17.207Z,1.1
2022-09-26T16:30:21.705Z,1.3
2022-09-26T16:35:15.483Z,1.7
2022-09-26T16:40:02.136Z,2.1
2022-09-26T16:45:03.944Z,1.9
2022-09-26T16:50:17.241Z,2.1
2022-09-26T16:55:04.395Z,2.5
2022-09-26T17:00:07.102Z,2.5
2022-09-26T17:05:01.622Z,2.9
2022-09-26T17:10:01.519Z,3.1
2022-09-26T17:15:04.481Z,3.8
2022-09-26T17:20:01.974Z,3.8
2022-09-26T17:25:01.632Z,3.8
2022-09-26T17:36:01.697Z,4.0
2022-09-26T17:41:01.753Z,3.9
2022-09-26T17:46:01.754Z,4.0
2022-09-26T17:51:01.673Z,4.6
2022-09-26T17:56:01.713Z,5.2
2022-09-26T18:01:02.094Z,5.8
2022-09-26T18:06:02.428Z,6.5
2022-09-26T18:11:01.625Z,7.8
2022-09-26T18:16:01.936Z,7.9
2022-09-26T18:21:01.633Z,8.1
2022-09-26T18:31:01.707Z,7.8
2022-09-26T18:36:01.701Z,6.9
2022-09-26T18:41:01.780Z,6.9
2022-09-26T18:51:01.635Z,7.0
2022-09-26T18:56:01.726Z,7.0
2022-09-26T19:01:01.838Z,7.4
2022-09-26T19:06:01.637Z,7.7
2022-09-26T19:11:01.729Z,8.1
2022-09-26T19:16:01.928Z,9.2
2022-09-26T19:21:03.206Z,9.8
2022-09-26T19:26:01.623Z,10.0
2022-09-26T19:31:01.893Z,9.7
2022-09-26T19:36:01.699Z,9.4
2022-09-26T19:41:02.865Z,9.2
2022-09-26T19:46:01.842Z,8.4
2022-09-26T19:51:01.636Z,8.2
2022-09-26T19:56:01.711Z,8.3
2022-09-26T20:01:01.798Z,7.7
2022-09-26T20:06:01.613Z,7.0
2022-09-26T20:11:01.624Z,7.4
2022-09-26T20:16:01.711Z,7.7
2022-09-26T20:21:01.609Z,8.1
2022-09-26T20:26:01.624Z,8.8
2022-09-26T20:36:03.709Z,8.4
2022-09-26T20:41:02.023Z,8.6
2022-09-26T20:46:01.805Z,8.1
2022-09-26T20:51:01.614Z,7.9
2022-09-26T20:56:01.690Z,7.9
2022-09-26T21:01:01.754Z,8.4
2022-09-26T21:06:01.612Z,8.1
2022-09-26T21:11:01.628Z,8.4
2022-09-26T21:16:01.657Z,8.2
2022-09-26T21:21:01.614Z,8.4
2022-09-26T21:26:01.625Z,7.8
2022-09-26T21:31:01.767Z,7.8
2022-09-26T21:36:01.701Z,8.0
2022-09-26T21:41:01.902Z,8.5
2022-09-26T21:51:01.793Z,9.5
2022-09-26T21:56:07.945Z,9.9
2022-09-26T22:06:07.713Z,10.2
2022-09-26T22:11:01.636Z,9.8
2022-09-26T22:16:01.539Z,9.7
2022-09-26T22:21:01.613Z,9.2
2022-09-26T22:31:01.917Z,8.8
2022-09-26T22:36:01.823Z,8.9
2022-09-26T22:41:01.750Z,8.7
2022-09-26T22:46:01.807Z,9.2
2022-09-26T22:51:01.630Z,8.8
2022-09-26T23:01:01.839Z,8.6
2022-09-26T23:06:01.627Z,8.9
2022-09-26T23:11:01.666Z,8.8
2022-09-26T23:16:01.612Z,9.1
2022-09-26T23:21:01.728Z,8.6
2022-09-26T23:26:01.526Z,8.5
2022-09-26T23:31:01.859Z,8.0
2022-09-26T23:36:01.902Z,7.2
2022-09-26T23:41:02.003Z,6.5
2022-09-26T23:46:01.939Z,6.9
2022-09-26T23:51:01.630Z,6.7
